Impacts TAF Board
For situational awareness. Not to be used for flight planning purposes.
IDs:

KPNS - Pensacola Intl, FL, US

Issued at 1736 UTC 07 Dec 2021
Updated at 1905 UTC 07 Dec 2021
Potential Impact None Slight Moderate High
Time1853Z 07/20Z 07/21Z 07/22Z 07/23Z 08/00Z 08/01Z 08/02Z 08/03Z 08/04Z 08/05Z 08/06Z 08/07Z 08/08Z>>
Type OBS PRVL PRVL PRVL PRVL PRVL PRVL PRVL PRVL
  [PRB30]  
PRVL
  [PRB30]  
PRVL
  [PRB30]  
PRVL PRVL PRVL
VIS 10 5 >6 >6 >6 >6 >6 >6 6
  [2]  
6
  [2]  
6
  [2]  
2 2 2
CIG 8 4 9 9 9 9 9 9 5
  [1]  
5
  [1]  
5
  [1]  
3 3 3
Cover OVC OVC OVC OVC OVC OVC OVC OVC OVC
  [OVC]  
OVC
  [OVC]  
OVC
  [OVC]  
BKN BKN BKN
FltCat IFR LIFR IFR IFR IFR IFR IFR IFR IFR
  [LIFR]  
IFR
  [LIFR]  
IFR
  [LIFR]  
LIFR LIFR LIFR
WX -- BR -- -- -- -- -- -- BR
  [-SHRA]  
BR
  [-SHRA]  
BR
  [-SHRA]  
SHRA BR SHRA BR SHRA BR
WDir VRB 40 90 90 90 90 90 90 VRB
[VRB]
VRB
[VRB]
VRB
[VRB]
VRB VRB VRB
WSpd 4 5 4 4 4 4 4 4 0
  [0]  
0
  [0]  
0
  [0]  
3 3 3
WGst -- -- -- -- -- -- -- -- --
  [--]  
--
  [--]  
--
  [--]  
-- -- --
WSHgt -- -- -- -- -- -- -- -- --
[--]
--
[--]
--
[--]
-- -- --
WSDir -- -- -- -- -- -- -- -- --
[--]
--
[--]
--
[--]
-- -- --
WSSpd -- -- -- -- -- -- -- -- --
[--]
--
[--]
--
[--]
-- -- --
Raw TAF
KPNS 071736Z 0718/0818 04005KT 5SM BR OVC004
  FM072100 09004KT P6SM OVC009
  FM080300 00000KT 6SM BR OVC005
  PROB30 0803/0806 2SM -SHRA OVC001
  FM080600 VRB03KT 2SM SHRA BR BKN003
  FM081500 31007KT 3SM BR BKN003
  PROB30 0815/0818 2SM SHRA OVC001


Raw METAR
KPNS 071853Z VRB04KT 10SM OVC008 18/16 A3005 RMK AO2 RAE1757 SLP177 P0000 T01780156
KPNS 071753Z 04004KT 10SM -RA OVC005 17/15 A3008 RMK AO2 RAB47 SLP186 P0000 60000 T01720150 10172 20150 58011
KPNS 071740Z VRB03KT 10SM OVC005 17/16 A3008 RMK AO2 T01720156
KPNS 071653Z 04005KT 5SM BR OVC003 16/14 A3011 RMK AO2 SLP197 T01560144

METAR Board
Radar Display
Forecast Discussion
For situational awareness. Not to be used for flight planning purposes.